createdAt,value
2023-04-18T00:02:07.125Z,100.00
2023-04-18T00:04:35.266Z,100.00
2023-04-18T00:07:03.097Z,100.00
2023-04-18T00:09:32.351Z,100.00
2023-04-18T00:12:01.475Z,100.00
2023-04-18T00:14:30.025Z,100.00
2023-04-18T00:16:57.881Z,100.00
2023-04-18T00:19:26.113Z,100.00
2023-04-18T00:21:53.922Z,100.00
2023-04-18T00:24:22.126Z,100.00
2023-04-18T00:26:51.253Z,100.00
2023-04-18T00:29:19.046Z,100.00
2023-04-18T00:31:46.885Z,100.00
2023-04-18T00:34:15.040Z,100.00
2023-04-18T00:36:43.028Z,100.00
2023-04-18T00:39:10.839Z,100.00
2023-04-18T00:41:38.713Z,100.00
2023-04-18T00:44:07.887Z,100.00
2023-04-18T00:46:35.921Z,100.00
2023-04-18T00:49:03.846Z,100.00
2023-04-18T00:51:33.467Z,100.00
2023-04-18T00:54:02.872Z,100.00
2023-04-18T00:56:30.736Z,100.00
2023-04-18T00:58:59.221Z,100.00
2023-04-18T01:01:28.559Z,100.00
2023-04-18T01:03:56.671Z,100.00
2023-04-18T01:06:25.449Z,100.00
2023-04-18T01:08:54.653Z,100.00
2023-04-18T01:11:22.625Z,100.00
2023-04-18T01:14:01.647Z,100.00
2023-04-18T01:16:36.772Z,100.00
2023-04-18T01:19:06.005Z,100.00
2023-04-18T01:21:36.115Z,100.00
2023-04-18T01:24:12.043Z,100.00
2023-04-18T01:26:44.904Z,100.00
2023-04-18T01:29:13.160Z,100.00
2023-04-18T01:31:41.833Z,100.00
2023-04-18T01:34:09.803Z,100.00
2023-04-18T01:36:39.118Z,100.00
2023-04-18T01:39:09.317Z,100.00
2023-04-18T01:41:37.288Z,100.00
2023-04-18T01:44:05.607Z,100.00
2023-04-18T01:46:34.218Z,100.00
2023-04-18T01:49:02.840Z,100.00
2023-04-18T01:51:31.233Z,100.00
2023-04-18T01:53:59.412Z,100.00
2023-04-18T01:56:28.593Z,100.00
2023-04-18T01:58:59.322Z,100.00
2023-04-18T02:01:27.532Z,100.00
2023-04-18T02:03:55.554Z,100.00
2023-04-18T02:06:23.755Z,100.00
2023-04-18T02:08:51.726Z,100.00
2023-04-18T02:11:19.618Z,100.00
2023-04-18T02:13:48.802Z,100.00
2023-04-18T02:16:16.978Z,100.00
2023-04-18T02:18:45.304Z,100.00
2023-04-18T02:21:14.746Z,100.00
2023-04-18T02:23:42.645Z,100.00
2023-04-18T02:26:10.497Z,100.00
2023-04-18T02:28:39.047Z,100.00
2023-04-18T02:31:14.419Z,100.00
2023-04-18T02:33:43.258Z,100.00
2023-04-18T02:36:12.754Z,100.00
2023-04-18T02:38:41.016Z,100.00
2023-04-18T02:41:09.069Z,100.00
2023-04-18T02:43:37.053Z,100.00
2023-04-18T02:46:05.129Z,100.00
2023-04-18T02:48:35.297Z,100.00
2023-04-18T02:51:04.124Z,100.00
2023-04-18T02:53:34.660Z,100.00
2023-04-18T02:56:02.940Z,100.00
2023-04-18T02:58:50.878Z,100.00
2023-04-18T03:01:43.975Z,100.00
2023-04-18T03:04:16.567Z,100.00
2023-04-18T03:06:50.216Z,100.00
2023-04-18T03:09:19.825Z,100.00
2023-04-18T03:11:52.100Z,100.00
2023-04-18T03:14:25.410Z,100.00
2023-04-18T03:16:56.357Z,100.00
2023-04-18T03:19:32.025Z,100.00
2023-04-18T03:22:05.959Z,100.00
2023-04-18T03:24:35.738Z,100.00
2023-04-18T03:27:07.172Z,100.00
2023-04-18T03:29:37.042Z,100.00
2023-04-18T03:32:05.685Z,100.00
2023-04-18T03:34:34.864Z,100.00
2023-04-18T03:37:05.185Z,100.00
2023-04-18T03:39:38.075Z,100.00
2023-04-18T03:42:06.249Z,100.00
2023-04-18T03:44:35.544Z,100.00
2023-04-18T03:47:04.873Z,100.00
2023-04-18T03:49:36.634Z,100.00
2023-04-18T03:52:05.324Z,100.00
2023-04-18T03:54:33.372Z,100.00
2023-04-18T03:57:03.035Z,100.00
2023-04-18T03:59:33.031Z,100.00
2023-04-18T04:02:01.555Z,100.00
2023-04-18T04:04:29.785Z,100.00
2023-04-18T04:06:59.776Z,100.00
2023-04-18T04:09:27.851Z,100.00
2023-04-18T04:11:55.891Z,100.00
2023-04-18T04:14:25.232Z,100.00
2023-04-18T04:16:54.648Z,100.00
2023-04-18T04:19:23.642Z,100.00
2023-04-18T04:22:02.438Z,100.00
2023-04-18T04:24:30.836Z,100.00
2023-04-18T04:26:59.624Z,100.00
2023-04-18T04:29:28.955Z,100.00
2023-04-18T04:31:59.677Z,100.00
2023-04-18T04:34:34.439Z,100.00
2023-04-18T04:37:06.763Z,100.00
2023-04-18T04:39:41.112Z,100.00
2023-04-18T04:42:25.224Z,100.00
2023-04-18T04:45:01.524Z,100.00
2023-04-18T04:47:29.620Z,100.00
2023-04-18T04:49:57.446Z,100.00
2023-04-18T04:52:26.855Z,100.00
2023-04-18T04:54:54.934Z,100.00
2023-04-18T04:57:25.029Z,100.00
2023-04-18T04:59:53.624Z,100.00
2023-04-18T05:02:23.468Z,100.00
2023-04-18T05:04:51.608Z,100.00
2023-04-18T05:07:19.589Z,100.00
2023-04-18T05:09:49.591Z,100.00
2023-04-18T05:12:17.592Z,100.00
2023-04-18T05:14:45.552Z,100.00
2023-04-18T05:17:13.449Z,100.00
2023-04-18T05:19:43.333Z,100.00
2023-04-18T05:22:11.404Z,100.00
2023-04-18T05:24:39.415Z,100.00
2023-04-18T05:27:08.789Z,100.00
2023-04-18T05:29:36.640Z,100.00
2023-04-18T05:32:05.459Z,100.00
2023-04-18T05:34:37.973Z,100.00
2023-04-18T05:37:06.636Z,100.00
2023-04-18T05:39:34.616Z,100.00
2023-04-18T05:42:22.597Z,100.00
2023-04-18T05:44:50.624Z,100.00
2023-04-18T05:47:18.552Z,100.00
2023-04-18T05:49:46.522Z,100.00
2023-04-18T05:52:14.383Z,100.00
2023-04-18T05:54:42.286Z,100.00
2023-04-18T05:57:10.246Z,100.00
2023-04-18T05:59:39.476Z,100.00
2023-04-18T06:02:13.318Z,100.00
2023-04-18T06:04:42.474Z,100.00
2023-04-18T06:07:11.128Z,100.00
2023-04-18T06:09:39.235Z,100.00
2023-04-18T06:12:07.259Z,100.00
2023-04-18T06:14:35.440Z,100.00
2023-04-18T06:17:07.308Z,100.00
2023-04-18T06:19:35.278Z,100.00
2023-04-18T06:22:03.239Z,100.00
2023-04-18T06:24:31.350Z,100.00
2023-04-18T06:26:59.498Z,100.00
2023-04-18T06:29:30.227Z,100.00
2023-04-18T06:31:58.276Z,100.00
2023-04-18T06:34:27.505Z,100.00
2023-04-18T06:36:55.932Z,100.00
2023-04-18T06:39:23.867Z,100.00
2023-04-18T06:41:51.917Z,100.00
2023-04-18T06:44:28.830Z,100.00
2023-04-18T06:46:56.949Z,100.00
2023-04-18T06:49:26.411Z,100.00
2023-04-18T06:51:55.988Z,100.00
2023-04-18T06:54:23.988Z,100.00
2023-04-18T06:56:53.681Z,100.00
2023-04-18T06:59:21.659Z,100.00
2023-04-18T07:01:50.630Z,100.00
2023-04-18T07:04:19.100Z,100.00
2023-04-18T07:06:47.446Z,100.00
2023-04-18T07:09:16.796Z,100.00
2023-04-18T07:11:44.728Z,100.00
2023-04-18T07:14:12.903Z,100.00
2023-04-18T07:16:41.256Z,100.00
2023-04-18T07:19:09.201Z,100.00
2023-04-18T07:21:38.709Z,100.00
2023-04-18T07:24:06.959Z,100.00
2023-04-18T07:26:37.955Z,100.00
2023-04-18T07:29:06.435Z,100.00
2023-04-18T07:31:34.451Z,100.00
2023-04-18T07:34:02.463Z,100.00
2023-04-18T07:36:31.355Z,100.00
2023-04-18T07:38:59.302Z,100.00
2023-04-18T07:41:27.285Z,100.00
2023-04-18T07:43:57.812Z,100.00
2023-04-18T07:46:25.938Z,100.00
2023-04-18T07:48:53.933Z,100.00
2023-04-18T07:51:22.165Z,100.00
2023-04-18T07:53:50.149Z,100.00
2023-04-18T07:56:19.105Z,100.00
2023-04-18T07:58:47.089Z,100.00
2023-04-18T08:01:18.463Z,100.00
2023-04-18T08:03:47.379Z,100.00
2023-04-18T08:06:16.763Z,100.00
2023-04-18T08:08:44.815Z,100.00
2023-04-18T08:11:12.781Z,100.00
2023-04-18T08:13:40.778Z,100.00
2023-04-18T08:16:09.458Z,100.00
2023-04-18T08:18:38.958Z,100.00
2023-04-18T08:21:06.816Z,100.00
2023-04-18T08:23:34.787Z,100.00
2023-04-18T08:26:02.765Z,100.00
2023-04-18T08:28:30.721Z,100.00
2023-04-18T08:30:58.791Z,100.00
2023-04-18T08:33:27.257Z,100.00
2023-04-18T08:35:56.492Z,100.00
2023-04-18T08:38:24.322Z,100.00
2023-04-18T08:40:52.320Z,100.00
2023-04-18T08:43:20.402Z,100.00
2023-04-18T08:45:48.469Z,100.00
2023-04-18T08:48:17.878Z,100.00
2023-04-18T08:50:46.043Z,100.00
2023-04-18T08:53:17.678Z,100.00
2023-04-18T08:55:47.709Z,100.00
2023-04-18T08:58:22.307Z,100.00
2023-04-18T09:00:52.114Z,100.00
2023-04-18T09:03:39.938Z,100.00
2023-04-18T09:06:13.602Z,100.00
2023-04-18T09:08:44.363Z,100.00
2023-04-18T09:11:28.813Z,100.00
2023-04-18T09:13:58.612Z,100.00
2023-04-18T09:16:27.783Z,100.00
2023-04-18T09:19:11.272Z,100.00
2023-04-18T09:21:41.101Z,100.00
2023-04-18T09:24:21.164Z,100.00
2023-04-18T09:26:49.927Z,100.00
2023-04-18T09:29:18.639Z,100.00
2023-04-18T09:32:00.089Z,100.00
2023-04-18T09:34:29.391Z,100.00
2023-04-18T09:37:09.337Z,100.00
2023-04-18T09:39:39.789Z,100.00
2023-04-18T09:42:10.366Z,100.00
2023-04-18T09:44:38.756Z,100.00
2023-04-18T09:47:07.935Z,100.00
2023-04-18T09:49:35.902Z,100.00
2023-04-18T09:52:08.423Z,100.00
2023-04-18T09:54:40.029Z,100.00
2023-04-18T09:57:13.581Z,100.00
2023-04-18T09:59:51.096Z,100.00
2023-04-18T10:02:23.037Z,100.00
2023-04-18T10:04:54.355Z,100.00
2023-04-18T10:07:25.873Z,89.18
2023-04-18T10:09:55.429Z,90.20
2023-04-18T10:12:24.328Z,86.31
2023-04-18T10:14:54.189Z,81.85
2023-04-18T10:17:22.335Z,78.36
2023-04-18T10:20:06.537Z,77.64
2023-04-18T10:22:35.533Z,73.63
2023-04-18T10:25:06.745Z,75.66
2023-04-18T10:27:58.439Z,74.51
2023-04-18T10:31:05.246Z,90.83
2023-04-18T10:33:40.867Z,94.17
2023-04-18T10:36:17.364Z,91.93
2023-04-18T10:38:50.303Z,96.29
2023-04-18T10:41:24.762Z,86.80
2023-04-18T10:44:18.475Z,89.48
2023-04-18T10:47:21.070Z,96.19
2023-04-18T10:50:01.538Z,96.42
2023-04-18T10:52:30.943Z,99.72
2023-04-18T10:55:12.957Z,100.00
2023-04-18T10:57:45.019Z,100.00
2023-04-18T11:00:18.554Z,100.00
2023-04-18T11:02:53.817Z,100.00
2023-04-18T11:05:26.680Z,100.00
2023-04-18T11:07:55.133Z,100.00
2023-04-18T11:10:26.289Z,100.00
2023-04-18T11:12:56.471Z,100.00
2023-04-18T11:15:25.727Z,100.00
2023-04-18T11:18:00.399Z,100.00
2023-04-18T11:20:30.226Z,100.00
2023-04-18T11:23:00.675Z,100.00
2023-04-18T11:25:31.889Z,100.00
2023-04-18T11:28:03.925Z,98.68
2023-04-18T11:30:37.719Z,100.00
2023-04-18T11:33:07.635Z,98.55
2023-04-18T11:35:38.976Z,100.00
2023-04-18T11:38:08.578Z,100.00
2023-04-18T11:40:37.276Z,100.00
2023-04-18T11:43:07.644Z,98.05
2023-04-18T11:45:36.112Z,97.20
2023-04-18T11:48:04.172Z,100.00
2023-04-18T11:50:37.138Z,98.13
2023-04-18T11:53:05.212Z,100.00
2023-04-18T11:55:33.286Z,100.00
2023-04-18T11:58:02.416Z,99.40
2023-04-18T12:00:34.547Z,99.52
2023-04-18T12:03:05.503Z,97.45
2023-04-18T12:05:36.913Z,95.78
2023-04-18T12:08:07.859Z,94.82
2023-04-18T12:10:36.083Z,81.02
2023-04-18T12:13:08.402Z,74.11
2023-04-18T12:15:42.152Z,72.68
2023-04-18T12:18:13.674Z,75.70
2023-04-18T12:20:52.386Z,77.09
2023-04-18T12:23:35.686Z,76.67
2023-04-18T12:26:05.654Z,80.01
2023-04-18T12:28:35.222Z,75.63
2023-04-18T12:31:07.176Z,75.83
2023-04-18T12:33:36.733Z,73.97
2023-04-18T12:36:06.043Z,70.48
2023-04-18T12:38:35.220Z,70.90
2023-04-18T12:41:03.307Z,72.96
2023-04-18T12:43:31.272Z,76.60
2023-04-18T12:45:59.905Z,75.52
2023-04-18T12:48:29.163Z,81.45
2023-04-18T12:50:57.133Z,80.37
2023-04-18T12:53:25.613Z,76.40
2023-04-18T12:55:53.598Z,77.27
2023-04-18T12:58:21.684Z,78.35
2023-04-18T13:00:49.763Z,78.42
2023-04-18T13:03:17.935Z,77.09
2023-04-18T13:05:47.455Z,70.04
2023-04-18T13:08:17.520Z,69.58
2023-04-18T13:10:47.593Z,67.28
2023-04-18T13:13:15.717Z,65.23
2023-04-18T13:15:43.597Z,62.93
2023-04-18T13:18:11.532Z,63.29
2023-04-18T13:20:39.394Z,63.27
2023-04-18T13:23:08.536Z,62.83
2023-04-18T13:25:36.439Z,65.19
2023-04-18T13:28:04.609Z,62.83
2023-04-18T13:30:34.125Z,62.38
2023-04-18T13:33:02.089Z,63.62
2023-04-18T13:35:30.456Z,68.45
2023-04-18T13:37:58.837Z,67.71
2023-04-18T13:40:28.054Z,65.34
2023-04-18T13:42:55.916Z,59.87
2023-04-18T13:45:24.184Z,60.40
2023-04-18T13:47:52.057Z,63.03
2023-04-18T13:50:20.272Z,59.99
2023-04-18T13:52:49.293Z,57.75
2023-04-18T13:55:17.621Z,58.76
2023-04-18T13:57:46.781Z,54.35
2023-04-18T14:00:16.665Z,52.86
2023-04-18T14:02:44.627Z,52.74
2023-04-18T14:05:12.720Z,56.09
2023-04-18T14:07:40.563Z,57.18
2023-04-18T14:10:09.366Z,59.24
2023-04-18T14:12:37.490Z,59.26
2023-04-18T14:15:09.139Z,60.25
2023-04-18T14:17:36.980Z,60.89
2023-04-18T14:20:06.592Z,58.48
2023-04-18T14:22:34.493Z,57.00
2023-04-18T14:25:03.777Z,55.94
2023-04-18T14:27:32.808Z,54.80
2023-04-18T14:30:00.906Z,55.01
2023-04-18T14:32:30.157Z,56.19
2023-04-18T14:34:59.104Z,56.09
2023-04-18T14:37:27.192Z,57.08
2023-04-18T14:39:55.147Z,55.51
2023-04-18T14:42:22.928Z,57.29
2023-04-18T14:44:50.885Z,55.69
2023-04-18T14:47:18.673Z,57.46
2023-04-18T14:49:47.857Z,55.43
2023-04-18T14:52:15.862Z,56.15
2023-04-18T14:54:43.905Z,57.43
2023-04-18T14:57:14.303Z,55.13
2023-04-18T14:59:42.589Z,56.43
2023-04-18T15:02:10.440Z,57.86
2023-04-18T15:04:38.444Z,56.42
2023-04-18T15:07:07.697Z,58.87
2023-04-18T15:09:39.053Z,56.70
2023-04-18T15:12:07.718Z,54.25
2023-04-18T15:14:39.594Z,53.65
2023-04-18T15:17:07.517Z,52.54
2023-04-18T15:19:35.296Z,53.15
2023-04-18T15:22:03.271Z,52.25
2023-04-18T15:24:32.452Z,54.33
2023-04-18T15:27:01.339Z,58.15
2023-04-18T15:29:29.435Z,56.51
2023-04-18T15:31:57.338Z,56.38
2023-04-18T15:34:25.783Z,53.77
2023-04-18T15:36:53.620Z,55.79
2023-04-18T15:39:23.907Z,55.05
2023-04-18T15:41:54.613Z,58.27
2023-04-18T15:44:22.938Z,57.15
2023-04-18T15:46:51.004Z,58.31
2023-04-18T15:49:18.952Z,58.00
2023-04-18T15:51:46.854Z,59.48
2023-04-18T15:54:14.904Z,59.81
2023-04-18T15:56:44.667Z,58.15
2023-04-18T15:59:13.819Z,57.74
2023-04-18T16:01:44.440Z,58.56
2023-04-18T16:04:16.757Z,60.50
2023-04-18T16:06:44.613Z,59.49
2023-04-18T16:09:14.537Z,58.98
2023-04-18T16:11:42.466Z,59.99
2023-04-18T16:14:10.230Z,60.96
2023-04-18T16:16:39.406Z,58.92
2023-04-18T16:19:07.302Z,56.98
2023-04-18T16:21:35.191Z,58.59
2023-04-18T16:24:02.891Z,57.68
2023-04-18T16:26:31.008Z,60.44
2023-04-18T16:28:59.200Z,58.94
2023-04-18T16:31:27.050Z,59.58
2023-04-18T16:33:56.450Z,59.15
2023-04-18T16:36:24.352Z,60.86
2023-04-18T16:38:52.213Z,60.75
2023-04-18T16:41:19.942Z,62.82
2023-04-18T16:43:47.845Z,62.39
2023-04-18T16:46:15.846Z,62.98
2023-04-18T16:48:45.153Z,63.51
2023-04-18T16:51:14.429Z,63.70
2023-04-18T16:53:42.297Z,65.76
2023-04-18T16:56:10.174Z,64.15
2023-04-18T16:58:37.971Z,66.02
2023-04-18T17:01:07.940Z,66.33
2023-04-18T17:03:36.613Z,65.36
2023-04-18T17:06:05.702Z,67.19
2023-04-18T17:08:35.715Z,68.46
2023-04-18T17:11:03.621Z,69.13
2023-04-18T17:13:31.608Z,70.28
2023-04-18T17:15:59.677Z,67.29
2023-04-18T17:18:27.551Z,69.20
2023-04-18T17:20:55.322Z,70.79
2023-04-18T17:23:23.159Z,73.79
2023-04-18T17:25:52.289Z,74.83
2023-04-18T17:28:21.245Z,76.27
2023-04-18T17:30:50.356Z,78.75
2023-04-18T17:33:18.134Z,82.21
2023-04-18T17:35:46.019Z,81.95
2023-04-18T17:38:13.911Z,83.88
2023-04-18T17:40:41.687Z,88.67
2023-04-18T17:43:11.180Z,90.31
2023-04-18T17:45:39.318Z,92.15
2023-04-18T17:48:07.107Z,93.24
2023-04-18T17:50:37.010Z,94.19
2023-04-18T17:53:05.043Z,95.86
2023-04-18T17:55:32.850Z,97.44
2023-04-18T17:58:00.683Z,96.60
2023-04-18T18:00:30.471Z,97.57
2023-04-18T18:03:00.724Z,98.65
2023-04-18T18:05:30.229Z,100.00
2023-04-18T18:08:01.004Z,99.52
2023-04-18T18:10:29.292Z,100.00
2023-04-18T18:12:57.203Z,100.00
2023-04-18T18:15:25.316Z,100.00
2023-04-18T18:17:55.348Z,100.00
2023-04-18T18:20:23.516Z,100.00
2023-04-18T18:22:53.210Z,100.00
2023-04-18T18:25:21.550Z,100.00
2023-04-18T18:27:51.152Z,100.00
2023-04-18T18:30:19.381Z,100.00
2023-04-18T18:32:47.312Z,100.00
2023-04-18T18:35:16.670Z,100.00
2023-04-18T18:37:44.562Z,100.00
2023-04-18T18:40:13.134Z,100.00
2023-04-18T18:42:42.384Z,100.00
2023-04-18T18:45:10.659Z,100.00
2023-04-18T18:47:40.016Z,100.00
2023-04-18T18:50:09.467Z,100.00
2023-04-18T18:52:41.557Z,100.00
2023-04-18T18:55:10.564Z,100.00
2023-04-18T18:57:38.393Z,100.00
2023-04-18T19:00:11.515Z,100.00
2023-04-18T19:02:40.093Z,100.00
2023-04-18T19:05:09.027Z,100.00
2023-04-18T19:07:38.935Z,100.00
2023-04-18T19:10:09.102Z,100.00
2023-04-18T19:12:37.616Z,100.00
2023-04-18T19:15:07.007Z,100.00
2023-04-18T19:17:35.245Z,100.00
2023-04-18T19:20:03.958Z,100.00
2023-04-18T19:22:31.887Z,100.00
2023-04-18T19:25:01.181Z,100.00
2023-04-18T19:27:29.003Z,100.00
2023-04-18T19:29:56.883Z,100.00
2023-04-18T19:32:24.657Z,100.00
2023-04-18T19:34:52.736Z,100.00
2023-04-18T19:37:20.670Z,100.00
2023-04-18T19:39:48.364Z,100.00
2023-04-18T19:42:17.554Z,100.00
2023-04-18T19:44:45.637Z,100.00
2023-04-18T19:47:13.410Z,100.00
2023-04-18T19:49:41.286Z,100.00
2023-04-18T19:52:09.185Z,100.00
2023-04-18T19:54:36.930Z,100.00
2023-04-18T19:57:06.165Z,100.00
2023-04-18T19:59:35.438Z,100.00
2023-04-18T20:02:05.826Z,100.00
2023-04-18T20:04:34.561Z,100.00
2023-04-18T20:07:02.911Z,100.00
2023-04-18T20:09:30.699Z,100.00
2023-04-18T20:12:00.378Z,100.00
2023-04-18T20:14:28.831Z,100.00
2023-04-18T20:16:58.074Z,100.00
2023-04-18T20:19:26.766Z,100.00
2023-04-18T20:21:54.576Z,100.00
2023-04-18T20:24:23.758Z,100.00
2023-04-18T20:26:51.875Z,100.00
2023-04-18T20:29:19.754Z,100.00
2023-04-18T20:31:47.647Z,100.00
2023-04-18T20:34:16.795Z,100.00
2023-04-18T20:36:46.535Z,100.00
2023-04-18T20:39:15.448Z,100.00
2023-04-18T20:41:46.996Z,100.00
2023-04-18T20:44:16.344Z,100.00
2023-04-18T20:46:44.085Z,100.00
2023-04-18T20:49:11.880Z,100.00
2023-04-18T20:51:41.213Z,100.00
2023-04-18T20:54:09.123Z,100.00
2023-04-18T20:56:37.116Z,100.00
2023-04-18T20:59:05.024Z,100.00
2023-04-18T21:01:32.897Z,100.00
2023-04-18T21:04:00.834Z,100.00
2023-04-18T21:06:29.015Z,100.00
2023-04-18T21:08:58.231Z,100.00
2023-04-18T21:11:26.042Z,100.00
2023-04-18T21:13:53.880Z,100.00
2023-04-18T21:16:23.710Z,100.00
2023-04-18T21:18:53.022Z,100.00
2023-04-18T21:21:20.957Z,100.00
2023-04-18T21:23:48.710Z,100.00
2023-04-18T21:26:17.912Z,100.00
2023-04-18T21:28:56.042Z,100.00
2023-04-18T21:31:24.880Z,100.00
2023-04-18T21:33:53.731Z,100.00
2023-04-18T21:36:22.890Z,100.00
2023-04-18T21:38:52.530Z,100.00
2023-04-18T21:41:23.598Z,100.00
2023-04-18T21:43:52.447Z,100.00
2023-04-18T21:46:20.684Z,100.00
2023-04-18T21:48:48.735Z,100.00
2023-04-18T21:51:17.377Z,100.00
2023-04-18T21:53:45.406Z,100.00
2023-04-18T21:56:14.037Z,100.00
2023-04-18T21:58:43.256Z,100.00
2023-04-18T22:01:11.264Z,100.00
2023-04-18T22:03:39.573Z,100.00
2023-04-18T22:06:07.788Z,100.00
2023-04-18T22:08:35.908Z,100.00
2023-04-18T22:11:04.563Z,100.00
2023-04-18T22:13:35.681Z,100.00
2023-04-18T22:16:08.084Z,100.00
2023-04-18T22:18:37.993Z,100.00
2023-04-18T22:21:06.626Z,100.00
2023-04-18T22:23:34.394Z,100.00
2023-04-18T22:26:02.308Z,100.00
2023-04-18T22:28:30.074Z,100.00
2023-04-18T22:30:58.217Z,100.00
2023-04-18T22:33:28.325Z,100.00
2023-04-18T22:35:56.218Z,100.00
2023-04-18T22:38:25.492Z,100.00
2023-04-18T22:40:53.575Z,100.00
2023-04-18T22:43:23.644Z,100.00
2023-04-18T22:45:51.565Z,100.00
2023-04-18T22:48:20.513Z,100.00
2023-04-18T22:50:49.970Z,100.00
2023-04-18T22:53:18.228Z,100.00
2023-04-18T22:55:46.487Z,100.00
2023-04-18T22:58:14.431Z,100.00
2023-04-18T23:00:42.612Z,100.00
2023-04-18T23:03:10.716Z,100.00
2023-04-18T23:05:38.580Z,100.00
2023-04-18T23:08:07.924Z,100.00
2023-04-18T23:10:35.839Z,100.00
2023-04-18T23:13:03.692Z,100.00
2023-04-18T23:15:31.518Z,100.00
2023-04-18T23:17:59.399Z,100.00
2023-04-18T23:20:27.292Z,100.00
2023-04-18T23:22:55.822Z,100.00
2023-04-18T23:25:25.251Z,100.00
2023-04-18T23:27:53.071Z,100.00
2023-04-18T23:30:20.917Z,100.00
2023-04-18T23:32:48.869Z,100.00
2023-04-18T23:35:17.291Z,100.00
2023-04-18T23:37:45.145Z,100.00
2023-04-18T23:40:12.967Z,100.00
2023-04-18T23:42:42.193Z,100.00
2023-04-18T23:45:11.531Z,100.00
2023-04-18T23:47:39.630Z,100.00
2023-04-18T23:50:09.280Z,100.00
2023-04-18T23:52:38.498Z,100.00
2023-04-18T23:55:07.471Z,100.00
2023-04-18T23:57:35.583Z,100.00
